Time;durP1;ratioP1;P1;durP2;ratioP2;P2;SDS_P1;SDS_P2;PMS_P1;PMS_P2;Temp;Humidity;BMP_temperature;BMP_pressure;BME280_temperature;BME280_humidity;BME280_pressure;Samples;Min_cycle;Max_cycle;Signal;HPM_P1;HPM_P2
2022/11/30 00:00:30;;;;;;;16.07;8.87;;;8.50;94.80;;;;;;4977493;28;20195;-96
2022/11/30 00:03:01;;;;;;;14.43;9.30;;;8.50;94.80;;;;;;4996760;28;20217;-96
2022/11/30 00:05:33;;;;;;;13.90;8.33;;;8.50;94.80;;;;;;4993481;28;20194;-96
2022/11/30 00:08:13;;;;;;;14.97;8.77;;;8.50;94.90;;;;;;4995767;28;20231;-96
2022/11/30 00:13:43;;;;;;;13.47;9.03;;;8.50;95.00;;;;;;4991689;28;20203;-96
2022/11/30 00:16:28;;;;;;;15.77;10.07;;;8.50;95.00;;;;;;4986335;28;20199;-96
2022/11/30 00:21:59;;;;;;;18.07;9.73;;;8.50;95.10;;;;;;4965304;28;20234;-96
2022/11/30 00:24:28;;;;;;;17.07;9.47;;;8.50;95.10;;;;;;4972464;28;20214;-96
2022/11/30 00:27:08;;;;;;;16.90;9.23;;;8.60;95.20;;;;;;4971163;28;20218;-95
2022/11/30 00:29:39;;;;;;;17.67;9.80;;;8.60;95.20;;;;;;4973931;28;20292;-94
2022/11/30 00:32:14;;;;;;;15.73;8.93;;;8.60;95.20;;;;;;4973745;28;20311;-95
2022/11/30 00:34:49;;;;;;;16.13;9.63;;;8.60;95.10;;;;;;4972828;28;20232;-95
2022/11/30 00:37:28;;;;;;;16.40;10.40;;;8.70;95.20;;;;;;4974032;28;20212;-95
2022/11/30 00:39:59;;;;;;;19.07;9.83;;;8.70;95.20;;;;;;4975698;28;20218;-95
2022/11/30 00:42:32;;;;;;;17.60;10.97;;;8.60;95.10;;;;;;4974663;28;20599;-95
2022/11/30 00:45:10;;;;;;;18.77;10.47;;;8.70;95.20;;;;;;4972328;28;20212;-96
2022/11/30 00:47:40;;;;;;;24.80;11.80;;;8.70;95.20;;;;;;4972049;28;20293;-96
2022/11/30 00:50:24;;;;;;;15.13;9.57;;;8.70;95.20;;;;;;4969061;28;20204;-95
2022/11/30 00:53:00;;;;;;;17.70;10.97;;;8.70;95.20;;;;;;4974599;28;20259;-95
2022/11/30 00:55:30;;;;;;;16.13;9.67;;;8.70;95.20;;;;;;4971100;28;20188;-96
2022/11/30 00:58:08;;;;;;;22.97;12.00;;;8.80;95.20;;;;;;4983982;28;20184;-96
2022/11/30 01:00:41;;;;;;;23.00;12.43;;;8.80;95.20;;;;;;4992960;28;20195;-96
2022/11/30 01:03:14;;;;;;;18.47;10.70;;;8.80;95.10;;;;;;4977927;28;20701;-96
2022/11/30 01:05:43;;;;;;;21.57;11.43;;;8.80;95.10;;;;;;4962680;28;20286;-96
2022/11/30 01:08:16;;;;;;;19.23;10.77;;;8.80;95.00;;;;;;4975206;28;20207;-96
2022/11/30 01:13:48;;;;;;;22.03;12.27;;;8.80;95.00;;;;;;4981561;28;20304;-96
2022/11/30 01:16:18;;;;;;;25.93;12.83;;;8.80;95.00;;;;;;4976555;28;20205;-96
2022/11/30 01:18:46;;;;;;;27.13;12.30;;;8.80;94.80;;;;;;4978536;28;20314;-96
2022/11/30 01:21:17;;;;;;;23.77;12.60;;;8.80;94.80;;;;;;4972346;28;20208;-94
2022/11/30 01:23:51;;;;;;;30.73;13.57;;;8.80;94.80;;;;;;4956471;28;20231;-95
2022/11/30 01:26:23;;;;;;;21.87;12.43;;;8.80;94.90;;;;;;4972226;28;20663;-96
2022/11/30 01:31:37;;;;;;;25.10;12.70;;;8.80;95.10;;;;;;4959179;28;20250;-96
2022/11/30 01:34:12;;;;;;;31.03;13.27;;;8.80;95.10;;;;;;4959092;28;20254;-96
2022/11/30 01:36:43;;;;;;;22.67;12.67;;;8.80;95.20;;;;;;4964547;28;20225;-96
2022/11/30 01:39:14;;;;;;;25.27;12.80;;;8.80;95.10;;;;;;4971977;28;20616;-95
2022/11/30 01:41:54;;;;;;;23.43;12.70;;;8.80;95.10;;;;;;4977629;28;20199;-96
2022/11/30 01:44:55;;;;;;;21.87;11.57;;;8.80;95.00;;;;;;4977042;28;20673;-95
2022/11/30 01:47:33;;;;;;;24.43;12.17;;;8.80;95.10;;;;;;4977575;28;20201;-94
2022/11/30 01:50:11;;;;;;;25.40;13.17;;;8.80;95.00;;;;;;4976946;28;20206;-94
2022/11/30 01:52:42;;;;;;;26.90;12.60;;;8.80;95.10;;;;;;4970555;28;20216;-95
2022/11/30 01:55:20;;;;;;;31.13;14.13;;;8.70;95.10;;;;;;4978972;28;20210;-96
2022/11/30 01:58:16;;;;;;;28.13;13.63;;;8.80;95.50;;;;;;4992317;28;20234;-96
2022/11/30 02:01:02;;;;;;;24.00;11.97;;;8.80;95.30;;;;;;4992895;28;20217;-96
2022/11/30 02:03:42;;;;;;;21.47;11.40;;;8.80;95.30;;;;;;4992772;28;20217;-96
2022/11/30 02:06:17;;;;;;;18.33;11.70;;;8.80;95.20;;;;;;4994203;28;20218;-96
2022/11/30 02:08:57;;;;;;;21.47;11.97;;;8.80;95.30;;;;;;4983027;28;20218;-96
2022/11/30 02:11:33;;;;;;;24.70;11.90;;;8.80;95.30;;;;;;4983694;28;20201;-96
2022/11/30 02:14:29;;;;;;;18.77;11.47;;;8.80;95.30;;;;;;4995509;28;20212;-96
2022/11/30 02:17:19;;;;;;;21.93;11.13;;;8.90;95.40;;;;;;4993158;28;20242;-96
2022/11/30 02:20:22;;;;;;;24.30;13.33;;;8.80;95.30;;;;;;4993017;28;20230;-96
2022/11/30 02:23:47;;;;;;;25.10;13.43;;;8.90;95.30;;;;;;4967306;28;20207;-96
2022/11/30 02:26:35;;;;;;;23.07;13.53;;;8.90;95.30;;;;;;4981877;28;20634;-96
2022/11/30 02:29:14;;;;;;;23.20;12.10;;;8.90;95.20;;;;;;4982374;28;20636;-95
2022/11/30 02:31:51;;;;;;;25.67;13.53;;;8.90;95.30;;;;;;4979899;28;20205;-96
2022/11/30 02:34:29;;;;;;;19.80;11.80;;;8.90;95.30;;;;;;4986847;28;20199;-96
2022/11/30 02:37:05;;;;;;;27.00;13.57;;;8.90;95.30;;;;;;4981574;28;20211;-95
2022/11/30 02:39:35;;;;;;;24.37;13.40;;;8.90;95.30;;;;;;4970178;28;20280;-96
2022/11/30 02:42:12;;;;;;;23.10;12.97;;;8.90;95.30;;;;;;4974220;28;20207;-96
2022/11/30 02:44:51;;;;;;;23.43;12.80;;;8.90;95.30;;;;;;4987454;28;20224;-96
2022/11/30 02:47:25;;;;;;;21.83;12.30;;;8.90;95.20;;;;;;4987320;28;20253;-95
2022/11/30 02:49:59;;;;;;;34.23;15.53;;;8.90;95.20;;;;;;4991941;28;20189;-95
2022/11/30 02:52:35;;;;;;;17.33;11.43;;;8.90;95.30;;;;;;4999092;28;20271;-96
2022/11/30 02:55:09;;;;;;;26.13;12.90;;;9.00;95.30;;;;;;4992774;28;20208;-96
2022/11/30 02:57:41;;;;;;;20.53;13.63;;;9.00;95.30;;;;;;4986864;28;20239;-96
2022/11/30 03:00:13;;;;;;;20.67;12.50;;;9.00;95.30;;;;;;4977631;28;20233;-96
2022/11/30 03:05:24;;;;;;;21.00;12.47;;;9.00;95.20;;;;;;4966768;28;20198;-96
2022/11/30 03:07:57;;;;;;;24.30;12.60;;;9.00;95.10;;;;;;4977001;28;20553;-94
2022/11/30 03:10:24;;;;;;;24.03;13.40;;;9.00;95.00;;;;;;4980272;28;20227;-95
2022/11/30 03:12:52;;;;;;;26.97;13.73;;;9.00;95.00;;;;;;4981146;28;20239;-96
2022/11/30 03:15:44;;;;;;;25.07;12.60;;;9.00;94.80;;;;;;4985047;28;20211;-96
2022/11/30 03:18:18;;;;;;;23.10;13.03;;;9.00;94.80;;;;;;4987112;28;20216;-96
2022/11/30 03:20:50;;;;;;;21.93;13.00;;;9.00;94.70;;;;;;4986557;28;20231;-96
2022/11/30 03:23:21;;;;;;;19.70;11.90;;;9.00;94.80;;;;;;4986487;28;20245;-96
2022/11/30 03:25:50;;;;;;;22.53;13.07;;;9.00;94.80;;;;;;4988117;28;20214;-96
2022/11/30 03:28:28;;;;;;;19.10;11.43;;;9.00;94.80;;;;;;4988749;28;20215;-94
2022/11/30 03:31:05;;;;;;;20.10;13.47;;;9.00;94.80;;;;;;4987816;28;20837;-96
2022/11/30 03:33:48;;;;;;;25.20;12.30;;;9.00;94.80;;;;;;4968756;28;20201;-96
2022/11/30 03:36:22;;;;;;;20.50;12.07;;;9.00;94.90;;;;;;4978702;28;20226;-96
2022/11/30 03:39:06;;;;;;;22.73;12.63;;;8.90;94.90;;;;;;4986560;28;20211;-96
2022/11/30 03:44:50;;;;;;;20.60;11.83;;;9.00;95.10;;;;;;4968197;28;20235;-96
2022/11/30 03:47:21;;;;;;;21.57;11.93;;;9.00;95.00;;;;;;4972308;28;20188;-96
2022/11/30 03:50:00;;;;;;;21.90;12.07;;;9.00;94.90;;;;;;4996653;28;20262;-95
2022/11/30 03:52:43;;;;;;;18.37;11.27;;;8.90;95.00;;;;;;4993660;28;20202;-96
2022/11/30 03:55:21;;;;;;;17.13;10.83;;;8.90;94.90;;;;;;4984272;28;20195;-95
2022/11/30 03:57:56;;;;;;;20.43;11.83;;;9.00;94.90;;;;;;4983032;28;20223;-95
2022/11/30 04:00:29;;;;;;;21.57;11.50;;;8.90;94.80;;;;;;4972606;28;20290;-95
2022/11/30 04:03:08;;;;;;;20.13;11.00;;;8.90;94.90;;;;;;4984688;28;20247;-95
2022/11/30 04:05:36;;;;;;;16.20;10.47;;;8.90;95.00;;;;;;4984305;28;20213;-95
2022/11/30 04:08:08;;;;;;;17.53;10.27;;;8.90;94.90;;;;;;4980503;28;20593;-96
2022/11/30 04:17:37;;;;;;;17.57;10.80;;;9.00;95.00;;;;;;4850968;28;20757;-96
2022/11/30 04:20:21;;;;;;;19.07;9.97;;;9.00;94.90;;;;;;4969147;28;20583;-96
2022/11/30 04:23:01;;;;;;;18.20;10.20;;;8.90;94.90;;;;;;4980618;28;20238;-96
2022/11/30 04:25:41;;;;;;;20.50;10.00;;;9.00;94.90;;;;;;4980067;28;20245;-95
2022/11/30 04:28:38;;;;;;;17.13;10.37;;;8.90;94.80;;;;;;4963150;28;20215;-96
2022/11/30 04:31:14;;;;;;;20.43;10.73;;;8.90;94.90;;;;;;4962713;28;20226;-96
2022/11/30 04:33:55;;;;;;;21.67;11.67;;;8.90;94.80;;;;;;4962131;28;20263;-96
2022/11/30 04:36:36;;;;;;;22.20;10.97;;;8.90;94.80;;;;;;4960734;28;20464;-96
2022/11/30 04:39:09;;;;;;;17.47;10.40;;;8.90;94.90;;;;;;4958899;28;20258;-95
2022/11/30 04:41:42;;;;;;;17.87;10.50;;;9.00;94.90;;;;;;4976686;28;20214;-96
2022/11/30 04:44:11;;;;;;;25.00;11.70;;;8.90;95.00;;;;;;4982714;28;20234;-96
2022/11/30 04:46:44;;;;;;;28.10;13.00;;;8.90;94.90;;;;;;4995525;28;20189;-96
2022/11/30 04:50:04;;;;;;;18.30;10.93;;;9.00;95.00;;;;;;4994955;28;20197;-96
2022/11/30 04:55:28;;;;;;;20.90;11.00;;;8.90;94.90;;;;;;4976861;28;20220;-95
2022/11/30 04:58:02;;;;;;;20.77;11.50;;;9.00;95.00;;;;;;4980373;28;20208;-96
2022/11/30 05:00:33;;;;;;;23.57;11.70;;;8.90;94.90;;;;;;4977824;28;20206;-95
2022/11/30 05:03:20;;;;;;;18.97;10.83;;;8.90;95.00;;;;;;4977239;28;20237;-96
2022/11/30 05:05:53;;;;;;;20.53;10.93;;;9.00;95.10;;;;;;4956425;28;20199;-96
2022/11/30 05:08:36;;;;;;;18.70;10.67;;;9.00;95.10;;;;;;4970698;28;20240;-96
2022/11/30 05:11:19;;;;;;;19.37;11.47;;;9.00;95.10;;;;;;4978146;28;20264;-96
2022/11/30 05:13:52;;;;;;;20.03;10.80;;;9.00;95.10;;;;;;4979246;28;20202;-96
2022/11/30 05:16:27;;;;;;;23.37;12.13;;;9.00;95.10;;;;;;4977890;28;20222;-95
2022/11/30 05:19:08;;;;;;;22.20;11.87;;;9.00;95.10;;;;;;4964745;28;20207;-95
2022/11/30 05:21:42;;;;;;;25.20;12.67;;;9.00;94.90;;;;;;4971661;28;20208;-96
2022/11/30 05:24:43;;;;;;;22.27;11.70;;;9.00;95.00;;;;;;4968529;28;20218;-96
2022/11/30 05:27:51;;;;;;;16.80;10.77;;;9.00;95.40;;;;;;4979013;28;20298;-96
2022/11/30 05:30:38;;;;;;;19.53;11.23;;;9.00;95.10;;;;;;4979106;28;20234;-96
2022/11/30 05:33:17;;;;;;;19.40;10.60;;;9.00;94.90;;;;;;4977848;28;20591;-96
2022/11/30 05:35:47;;;;;;;23.07;12.17;;;9.00;95.00;;;;;;4977928;28;20220;-95
2022/11/30 05:38:21;;;;;;;23.77;12.07;;;9.00;95.00;;;;;;4975921;28;20212;-96
2022/11/30 05:40:49;;;;;;;24.77;13.07;;;9.00;95.10;;;;;;4977443;28;20593;-96
2022/11/30 05:43:22;;;;;;;22.23;12.13;;;9.00;95.00;;;;;;4978878;28;20233;-96
2022/11/30 05:45:52;;;;;;;23.43;12.03;;;9.00;95.10;;;;;;4978534;28;20679;-96
2022/11/30 05:48:25;;;;;;;28.80;14.53;;;9.00;95.20;;;;;;4976602;28;20557;-95
2022/11/30 05:51:05;;;;;;;24.80;14.50;;;9.00;95.20;;;;;;4966269;28;20202;-96
2022/11/30 05:53:39;;;;;;;32.43;15.60;;;9.00;95.30;;;;;;4969456;28;20210;-96
2022/11/30 05:56:13;;;;;;;27.80;13.07;;;9.00;95.10;;;;;;4961044;28;20205;-96
2022/11/30 05:59:03;;;;;;;29.67;14.90;;;9.00;95.20;;;;;;4957664;28;20266;-95
2022/11/30 06:01:32;;;;;;;28.93;14.23;;;9.00;95.30;;;;;;4955253;28;20207;-96
2022/11/30 06:04:06;;;;;;;27.00;13.67;;;9.00;95.30;;;;;;4970865;28;20604;-95
2022/11/30 06:06:47;;;;;;;37.20;16.87;;;9.00;95.30;;;;;;4973374;28;20203;-96
2022/11/30 06:09:22;;;;;;;29.20;13.70;;;9.00;95.30;;;;;;4956165;28;20307;-96
2022/11/30 06:11:55;;;;;;;29.00;14.97;;;9.10;95.30;;;;;;4968544;28;20223;-96
2022/11/30 06:14:29;;;;;;;33.40;14.90;;;9.10;95.30;;;;;;4973707;28;20208;-96
2022/11/30 06:17:04;;;;;;;32.63;15.63;;;9.10;95.40;;;;;;4974009;28;20209;-96
2022/11/30 06:22:17;;;;;;;31.17;15.83;;;9.10;95.40;;;;;;4967393;28;20255;-95
2022/11/30 06:24:46;;;;;;;32.97;14.83;;;9.10;95.30;;;;;;4956374;28;20704;-94
2022/11/30 06:27:16;;;;;;;35.80;16.23;;;9.10;95.50;;;;;;4975130;28;20199;-96
2022/11/30 06:29:59;;;;;;;41.50;17.07;;;9.10;95.30;;;;;;4976984;28;20238;-96
2022/11/30 06:32:26;;;;;;;37.50;15.57;;;9.10;95.30;;;;;;4976781;28;20250;-95
2022/11/30 06:35:04;;;;;;;35.30;16.30;;;9.10;95.30;;;;;;4976344;28;20220;-95
2022/11/30 06:37:38;;;;;;;39.57;17.63;;;9.20;95.40;;;;;;4975502;28;20265;-96
2022/11/30 06:40:14;;;;;;;38.20;17.03;;;9.10;95.30;;;;;;4975904;28;20216;-94
2022/11/30 06:42:50;;;;;;;36.63;18.10;;;9.20;95.30;;;;;;4978611;28;20286;-94
2022/11/30 06:45:33;;;;;;;35.77;16.50;;;9.20;95.30;;;;;;4972638;28;20713;-94
2022/11/30 06:48:02;;;;;;;39.63;16.90;;;9.20;95.30;;;;;;4970596;28;20564;-95
2022/11/30 06:50:31;;;;;;;39.53;17.00;;;9.20;95.30;;;;;;4974264;28;20213;-94
2022/11/30 06:52:59;;;;;;;40.80;17.47;;;9.20;95.30;;;;;;4975226;28;20214;-94
2022/11/30 06:55:31;;;;;;;36.83;16.93;;;9.20;95.20;;;;;;4974429;28;20225;-94
2022/11/30 06:58:06;;;;;;;52.87;19.87;;;9.20;95.20;;;;;;4973807;28;20202;-95
2022/11/30 07:00:39;;;;;;;43.87;19.17;;;9.20;95.20;;;;;;4975124;28;20209;-95
2022/11/30 07:03:13;;;;;;;40.60;17.33;;;9.20;95.20;;;;;;4980716;28;20197;-95
2022/11/30 07:05:44;;;;;;;35.53;16.90;;;9.20;95.20;;;;;;4981100;28;20225;-95
2022/11/30 07:08:12;;;;;;;39.90;17.03;;;9.20;95.20;;;;;;4987380;28;20199;-96
2022/11/30 07:10:42;;;;;;;32.63;15.87;;;9.20;95.20;;;;;;4986092;28;20217;-95
2022/11/30 07:13:16;;;;;;;40.23;16.57;;;9.20;95.20;;;;;;4984174;28;20230;-95
2022/11/30 07:15:47;;;;;;;39.13;18.07;;;9.20;95.10;;;;;;4984905;28;20213;-96
2022/11/30 07:21:10;;;;;;;45.87;18.80;;;9.30;95.00;;;;;;4966472;28;20310;-94
2022/11/30 07:26:35;;;;;;;41.50;18.00;;;9.30;95.10;;;;;;4970248;28;20219;-95
2022/11/30 07:29:04;;;;;;;33.67;15.40;;;9.20;95.10;;;;;;4988493;28;20221;-95
2022/11/30 07:31:35;;;;;;;34.37;16.37;;;9.30;95.10;;;;;;4983270;28;20245;-95
2022/11/30 07:34:06;;;;;;;40.20;16.30;;;9.20;95.40;;;;;;4982855;28;20321;-95
2022/11/30 07:36:37;;;;;;;41.60;17.13;;;9.20;95.10;;;;;;4983751;28;20293;-94
2022/11/30 07:39:06;;;;;;;42.27;19.03;;;9.30;95.10;;;;;;4981019;28;20210;-95
2022/11/30 07:41:37;;;;;;;41.50;17.70;;;9.30;95.10;;;;;;4970409;28;20210;-94
2022/11/30 07:44:08;;;;;;;44.30;18.03;;;9.30;95.10;;;;;;4961072;28;20639;-94
2022/11/30 07:46:39;;;;;;;38.80;17.57;;;9.30;95.00;;;;;;4974837;28;20218;-94
2022/11/30 07:49:07;;;;;;;38.20;15.80;;;9.20;95.00;;;;;;4978636;28;20222;-93
2022/11/30 07:51:36;;;;;;;40.73;16.83;;;9.20;95.00;;;;;;4978343;28;20203;-95
2022/11/30 07:54:08;;;;;;;38.43;16.63;;;9.20;95.00;;;;;;4972442;28;20238;-93
2022/11/30 07:56:41;;;;;;;35.97;15.27;;;9.20;95.10;;;;;;4974733;28;20193;-93
2022/11/30 07:59:10;;;;;;;37.10;16.00;;;9.20;95.20;;;;;;4973631;28;20695;-94
2022/11/30 08:01:39;;;;;;;37.20;15.87;;;9.20;95.30;;;;;;4972112;28;20622;-95
2022/11/30 08:04:14;;;;;;;33.80;16.60;;;9.20;95.30;;;;;;4974692;28;20229;-96
2022/11/30 08:06:49;;;;;;;33.40;15.40;;;9.20;95.30;;;;;;4988691;28;20214;-95
2022/11/30 08:09:18;;;;;;;29.67;14.93;;;9.20;95.30;;;;;;4986754;28;20206;-94
2022/11/30 08:11:52;;;;;;;30.80;15.00;;;9.20;95.30;;;;;;4983031;28;20197;-94
2022/11/30 08:14:23;;;;;;;29.10;14.20;;;9.30;95.40;;;;;;4984896;28;20202;-93
2022/11/30 08:16:54;;;;;;;38.20;16.53;;;9.30;95.40;;;;;;4982657;28;20561;-94
2022/11/30 08:19:28;;;;;;;30.33;14.80;;;9.30;95.40;;;;;;4983173;28;20207;-94
2022/11/30 08:21:59;;;;;;;40.80;17.27;;;9.30;95.40;;;;;;4976814;28;20617;-94
2022/11/30 08:24:33;;;;;;;32.70;15.30;;;9.30;95.50;;;;;;4984342;28;20221;-94
2022/11/30 08:27:06;;;;;;;31.97;15.27;;;9.40;95.60;;;;;;4981745;28;20202;-94
2022/11/30 08:29:36;;;;;;;32.87;15.10;;;9.30;95.50;;;;;;4982792;28;20221;-95
2022/11/30 08:32:05;;;;;;;31.63;14.80;;;9.40;95.60;;;;;;4978181;28;20216;-95
2022/11/30 08:34:33;;;;;;;34.77;16.07;;;9.40;95.60;;;;;;4963362;28;20702;-95
2022/11/30 08:37:07;;;;;;;30.03;14.30;;;9.40;95.60;;;;;;4955775;28;20200;-95
2022/11/30 08:39:41;;;;;;;32.83;14.33;;;9.40;95.60;;;;;;4957308;28;20367;-94
2022/11/30 08:42:15;;;;;;;29.30;15.17;;;9.40;95.60;;;;;;4954231;28;20251;-95
2022/11/30 08:44:42;;;;;;;31.17;13.97;;;9.40;95.60;;;;;;4962216;28;20245;-95
2022/11/30 08:47:11;;;;;;;30.67;13.33;;;9.40;95.50;;;;;;4969542;28;20225;-94
2022/11/30 08:49:41;;;;;;;26.87;12.87;;;9.50;95.50;;;;;;4952361;28;20305;-94
2022/11/30 08:52:16;;;;;;;26.47;13.30;;;9.50;95.50;;;;;;4965422;28;20234;-95
2022/11/30 08:54:48;;;;;;;28.07;14.70;;;9.50;95.40;;;;;;4993349;28;20236;-94
2022/11/30 08:57:34;;;;;;;28.83;13.30;;;9.50;95.30;;;;;;4995877;28;20204;-94
2022/11/30 09:00:06;;;;;;;23.03;12.40;;;9.50;95.30;;;;;;4995855;28;20198;-93
2022/11/30 09:02:34;;;;;;;26.67;14.23;;;9.50;95.30;;;;;;4988018;28;20209;-96
2022/11/30 09:05:06;;;;;;;24.57;12.67;;;9.60;95.40;;;;;;4987163;28;20254;-95
2022/11/30 09:07:37;;;;;;;20.07;12.03;;;9.60;95.30;;;;;;4989766;28;20230;-95
2022/11/30 09:10:06;;;;;;;32.73;15.87;;;9.60;95.30;;;;;;4990726;28;20222;-94
2022/11/30 09:12:44;;;;;;;31.97;15.33;;;9.60;95.30;;;;;;4990941;28;20222;-95
2022/11/30 09:15:13;;;;;;;76.00;21.90;;;9.60;95.20;;;;;;4993069;28;20206;-95
2022/11/30 09:17:48;;;;;;;41.63;15.00;;;9.60;95.10;;;;;;4973748;28;20242;-96
2022/11/30 09:20:25;;;;;;;149.33;31.80;;;9.60;95.10;;;;;;4973753;28;20219;-95
2022/11/30 09:22:59;;;;;;;46.87;17.60;;;9.70;95.20;;;;;;4975006;28;20197;-96
2022/11/30 09:25:31;;;;;;;223.20;41.37;;;9.70;95.30;;;;;;4981611;28;20711;-96
2022/11/30 09:28:04;;;;;;;216.87;42.97;;;9.70;95.40;;;;;;4970650;28;20223;-96
2022/11/30 09:30:34;;;;;;;87.97;25.10;;;9.70;95.40;;;;;;4976787;28;20206;-96
2022/11/30 09:33:08;;;;;;;56.10;19.10;;;9.70;95.50;;;;;;4976241;28;20216;-96
2022/11/30 09:35:35;;;;;;;31.57;15.37;;;9.70;95.50;;;;;;4965151;28;20302;-94
2022/11/30 09:38:05;;;;;;;33.07;15.73;;;9.70;95.50;;;;;;4956926;28;20211;-95
2022/11/30 09:40:39;;;;;;;32.73;15.53;;;9.80;95.60;;;;;;4974085;28;20639;-95
2022/11/30 09:43:19;;;;;;;32.37;14.83;;;9.80;95.60;;;;;;4973825;28;20241;-95
2022/11/30 09:45:54;;;;;;;85.50;24.63;;;9.80;95.70;;;;;;4962049;28;20281;-95
2022/11/30 09:48:47;;;;;;;82.43;24.50;;;9.80;95.70;;;;;;4971608;28;20301;-95
2022/11/30 09:51:23;;;;;;;31.43;15.97;;;9.90;95.70;;;;;;4979980;28;20276;-95
2022/11/30 09:53:57;;;;;;;32.23;16.23;;;9.90;95.60;;;;;;4979822;28;20222;-95
2022/11/30 09:56:36;;;;;;;28.37;14.27;;;9.90;95.50;;;;;;4964813;28;20276;-95
2022/11/30 09:59:07;;;;;;;34.07;16.07;;;10.00;94.90;;;;;;4960442;28;20813;-96
2022/11/30 10:01:36;;;;;;;29.03;14.57;;;10.00;94.80;;;;;;4962364;28;20262;-96
2022/11/30 10:04:09;;;;;;;34.60;16.43;;;10.00;94.60;;;;;;4964104;28;20244;-95
2022/11/30 10:06:54;;;;;;;58.97;19.67;;;10.00;94.70;;;;;;4965563;28;20327;-95
2022/11/30 10:09:49;;;;;;;30.03;16.47;;;10.00;94.60;;;;;;4986881;28;20241;-94
2022/11/30 10:12:29;;;;;;;31.07;15.67;;;10.00;94.70;;;;;;4980299;28;20205;-95
2022/11/30 10:15:27;;;;;;;32.80;15.57;;;10.00;94.60;;;;;;4981203;28;20207;-94
2022/11/30 10:17:59;;;;;;;30.70;15.03;;;10.10;94.70;;;;;;4969601;28;20219;-96
2022/11/30 10:21:04;;;;;;;32.37;15.40;;;10.10;94.60;;;;;;4967482;28;20192;-95
2022/11/30 10:23:58;;;;;;;32.93;15.73;;;10.10;94.70;;;;;;4965256;28;20214;-94
2022/11/30 10:26:38;;;;;;;33.23;16.07;;;10.10;94.80;;;;;;4966058;28;20299;-95
2022/11/30 10:29:17;;;;;;;29.03;16.40;;;10.20;94.80;;;;;;4968826;28;20223;-94
2022/11/30 10:31:50;;;;;;;30.57;16.33;;;10.20;94.80;;;;;;4981201;28;20230;-94
2022/11/30 10:34:31;;;;;;;28.63;15.20;;;10.20;94.90;;;;;;4978070;28;20214;-95
2022/11/30 10:37:11;;;;;;;34.70;17.90;;;10.20;94.90;;;;;;4971879;28;20210;-95
2022/11/30 10:39:46;;;;;;;31.23;16.60;;;10.20;94.90;;;;;;4975110;28;20207;-93
2022/11/30 10:42:19;;;;;;;34.43;17.83;;;10.30;94.90;;;;;;4981264;28;20766;-95
2022/11/30 10:44:58;;;;;;;38.90;19.13;;;10.30;94.80;;;;;;4981305;28;20203;-93
2022/11/30 10:47:35;;;;;;;30.33;16.67;;;10.30;94.80;;;;;;4971747;28;20206;-95
2022/11/30 10:50:06;;;;;;;36.03;17.43;;;10.40;94.70;;;;;;4986520;28;20211;-95
2022/11/30 10:52:45;;;;;;;34.23;16.33;;;10.40;94.80;;;;;;4984717;28;20258;-94
2022/11/30 10:55:23;;;;;;;34.57;17.50;;;10.40;94.90;;;;;;4985729;28;20570;-96
2022/11/30 10:58:01;;;;;;;37.03;19.20;;;10.40;94.90;;;;;;4981695;28;21025;-94
2022/11/30 11:00:29;;;;;;;33.30;17.30;;;10.40;95.00;;;;;;4985380;28;20677;-94
2022/11/30 11:02:58;;;;;;;32.93;16.20;;;10.50;95.00;;;;;;4979769;28;20265;-93
2022/11/30 11:05:29;;;;;;;43.00;19.83;;;10.50;95.10;;;;;;4981220;28;20226;-94
2022/11/30 11:08:19;;;;;;;35.53;18.23;;;10.50;95.10;;;;;;4976176;28;20209;-94
2022/11/30 11:10:51;;;;;;;38.70;18.90;;;10.60;95.30;;;;;;4965794;28;20198;-95
2022/11/30 11:13:21;;;;;;;42.33;19.37;;;10.60;95.40;;;;;;4975586;28;20219;-93
2022/11/30 11:15:57;;;;;;;41.93;21.87;;;10.70;95.40;;;;;;4977445;28;20960;-94
2022/11/30 11:18:33;;;;;;;45.40;23.23;;;10.70;95.30;;;;;;4981837;28;20214;-94
2022/11/30 11:21:05;;;;;;;42.57;22.00;;;10.70;95.30;;;;;;4980280;28;20210;-94
2022/11/30 11:23:37;;;;;;;44.13;20.87;;;10.80;95.50;;;;;;4977944;28;20214;-95
2022/11/30 11:26:07;;;;;;;42.77;20.80;;;10.80;95.20;;;;;;4975413;28;20233;-95
2022/11/30 11:28:45;;;;;;;41.37;19.67;;;10.80;95.30;;;;;;4969113;28;20648;-94
2022/11/30 11:31:26;;;;;;;44.50;20.93;;;10.80;95.20;;;;;;4975908;28;20230;-94
2022/11/30 11:33:54;;;;;;;42.70;22.00;;;10.90;94.90;;;;;;4973549;28;20203;-96
2022/11/30 11:36:28;;;;;;;38.63;20.23;;;10.90;94.70;;;;;;4976827;28;20221;-96
2022/11/30 11:39:00;;;;;;;38.97;21.47;;;10.90;94.70;;;;;;4976509;28;20277;-95
2022/11/30 11:41:32;;;;;;;41.67;21.33;;;10.90;94.90;;;;;;4975911;28;20196;-95
2022/11/30 11:44:02;;;;;;;45.07;21.93;;;11.00;94.90;;;;;;4967045;28;20752;-95
2022/11/30 11:46:35;;;;;;;42.30;22.53;;;11.00;95.20;;;;;;4964423;29;20239;-95
2022/11/30 11:49:05;;;;;;;40.80;21.33;;;11.00;95.20;;;;;;4960547;29;20271;-94
2022/11/30 11:51:39;;;;;;;43.60;22.30;;;11.00;95.30;;;;;;4958406;29;20292;-96
2022/11/30 11:54:26;;;;;;;46.33;23.63;;;11.10;95.40;;;;;;4960476;28;20637;-96
2022/11/30 11:56:56;;;;;;;49.07;24.13;;;11.10;95.30;;;;;;4970739;28;20207;-95
2022/11/30 11:59:40;;;;;;;43.83;23.93;;;11.10;95.30;;;;;;4954332;29;20625;-95
2022/11/30 12:02:32;;;;;;;38.90;21.63;;;11.20;95.00;;;;;;4959796;28;20203;-95
2022/11/30 12:05:09;;;;;;;38.73;21.27;;;11.20;95.20;;;;;;4970461;28;20214;-95
2022/11/30 12:07:44;;;;;;;39.97;21.77;;;11.20;95.10;;;;;;4960127;28;20203;-95
2022/11/30 12:10:30;;;;;;;42.27;22.80;;;11.30;95.30;;;;;;4972990;28;20246;-96
2022/11/30 12:13:01;;;;;;;41.93;22.87;;;11.40;95.30;;;;;;4971769;28;20222;-93
2022/11/30 12:15:37;;;;;;;51.80;23.80;;;11.30;95.10;;;;;;4972320;28;20311;-93
2022/11/30 12:18:22;;;;;;;179.03;43.80;;;11.30;95.20;;;;;;4968549;28;20207;-92
2022/11/30 12:21:01;;;;;;;64.73;25.23;;;11.40;95.10;;;;;;4969564;28;20207;-93
2022/11/30 12:23:50;;;;;;;47.30;25.67;;;11.40;95.00;;;;;;5310289;23;20284;-95
2022/11/30 12:26:41;;;;;;;72.33;27.00;;;11.40;94.90;;;;;;4998875;28;20238;-95
2022/11/30 12:29:23;;;;;;;53.63;24.83;;;11.50;94.90;;;;;;4980914;28;20281;-95
2022/11/30 12:32:05;;;;;;;44.70;24.23;;;11.50;94.60;;;;;;4976563;28;20216;-94
2022/11/30 12:34:58;;;;;;;49.70;24.77;;;11.50;94.70;;;;;;4970423;28;20514;-95
2022/11/30 12:37:32;;;;;;;43.67;22.47;;;11.50;94.80;;;;;;4982832;28;20229;-96
2022/11/30 12:40:17;;;;;;;53.20;24.20;;;11.50;94.80;;;;;;4986354;28;20183;-96
2022/11/30 12:42:56;;;;;;;298.63;56.43;;;11.50;94.60;;;;;;4985309;28;20230;-96
2022/11/30 12:45:34;;;;;;;52.40;24.17;;;11.50;94.50;;;;;;4978955;28;20203;-96
2022/11/30 12:48:12;;;;;;;49.30;23.80;;;11.50;94.50;;;;;;4981314;28;20226;-96
2022/11/30 12:51:02;;;;;;;46.37;22.63;;;11.50;94.60;;;;;;4975937;28;20210;-96
2022/11/30 12:53:38;;;;;;;39.87;21.60;;;11.50;94.60;;;;;;4978212;28;20203;-95
2022/11/30 12:56:41;;;;;;;48.03;24.10;;;11.50;94.50;;;;;;4979062;28;20542;-95
2022/11/30 12:59:24;;;;;;;44.33;21.93;;;11.50;94.50;;;;;;4974550;28;20420;-96
2022/11/30 13:02:16;;;;;;;43.20;22.57;;;11.50;94.60;;;;;;4977851;28;20226;-95
2022/11/30 13:04:48;;;;;;;40.37;21.53;;;11.50;94.80;;;;;;4974380;28;20270;-95
2022/11/30 13:07:28;;;;;;;42.37;21.40;;;11.50;94.80;;;;;;4972845;28;20226;-96
2022/11/30 13:10:01;;;;;;;48.40;24.67;;;11.50;94.80;;;;;;4969824;28;20236;-95
2022/11/30 13:12:34;;;;;;;45.93;23.03;;;11.50;94.90;;;;;;4977861;28;20257;-95
2022/11/30 13:15:16;;;;;;;45.50;22.33;;;11.50;95.20;;;;;;4963603;28;20271;-94
2022/11/30 13:17:46;;;;;;;54.77;23.47;;;11.60;94.90;;;;;;4972630;28;20261;-96
2022/11/30 13:20:20;;;;;;;44.03;23.10;;;11.60;95.20;;;;;;4985402;28;20294;-93
2022/11/30 13:22:54;;;;;;;38.37;22.07;;;11.60;95.20;;;;;;4994599;28;20209;-94
2022/11/30 13:28:25;;;;;;;41.57;21.83;;;11.70;95.20;;;;;;4967948;28;20310;-93
2022/11/30 13:31:00;;;;;;;74.77;27.17;;;11.70;95.20;;;;;;4974170;28;20211;-92
2022/11/30 13:33:58;;;;;;;46.93;23.83;;;11.70;95.40;;;;;;4969946;28;20286;-92
2022/11/30 13:36:37;;;;;;;39.67;22.00;;;11.80;95.30;;;;;;4946218;28;20198;-93
2022/11/30 13:39:21;;;;;;;45.60;23.63;;;11.80;95.20;;;;;;4973166;28;20608;-93
2022/11/30 13:42:11;;;;;;;46.10;23.10;;;11.80;95.10;;;;;;4968323;28;20202;-94
2022/11/30 13:44:40;;;;;;;42.37;22.63;;;11.80;95.00;;;;;;4967655;28;20217;-95
2022/11/30 13:47:27;;;;;;;42.23;22.10;;;11.90;95.00;;;;;;4964638;28;20231;-94
2022/11/30 13:49:57;;;;;;;41.97;22.70;;;11.90;95.10;;;;;;4969794;28;20218;-95
2022/11/30 13:52:58;;;;;;;37.17;21.77;;;11.90;94.80;;;;;;4967352;28;20860;-94
2022/11/30 13:55:55;;;;;;;42.87;22.73;;;12.00;94.80;;;;;;4954322;28;21071;-95
2022/11/30 13:58:23;;;;;;;45.07;25.07;;;12.00;94.70;;;;;;4966505;28;20617;-95